sensor_id;sensor_type;location;lat;lon;timestamp;temperature;humidity
4874;DHT22;2451;49.970;9.068;2023-07-29T00:02:22;17.70;99.90
4874;DHT22;2451;49.970;9.068;2023-07-29T00:04:47;17.60;99.90
4874;DHT22;2451;49.970;9.068;2023-07-29T00:07:13;17.70;99.90
4874;DHT22;2451;49.970;9.068;2023-07-29T00:09:38;17.60;99.90
4874;DHT22;2451;49.970;9.068;2023-07-29T00:12:04;17.60;99.90
4874;DHT22;2451;49.970;9.068;2023-07-29T00:14:30;17.60;99.90
4874;DHT22;2451;49.970;9.068;2023-07-29T00:16:55;17.60;99.90
4874;DHT22;2451;49.970;9.068;2023-07-29T00:19:21;17.60;99.90
4874;DHT22;2451;49.970;9.068;2023-07-29T00:21:48;17.60;99.90
4874;DHT22;2451;49.970;9.068;2023-07-29T00:24:14;17.60;99.90
4874;DHT22;2451;49.970;9.068;2023-07-29T00:26:39;17.60;99.90
4874;DHT22;2451;49.970;9.068;2023-07-29T00:29:05;17.60;99.90
4874;DHT22;2451;49.970;9.068;2023-07-29T00:31:30;17.60;99.90
4874;DHT22;2451;49.970;9.068;2023-07-29T00:33:56;17.60;99.90
4874;DHT22;2451;49.970;9.068;2023-07-29T00:36:23;17.60;99.90
4874;DHT22;2451;49.970;9.068;2023-07-29T00:38:49;17.60;99.90
4874;DHT22;2451;49.970;9.068;2023-07-29T00:41:15;17.60;99.90
4874;DHT22;2451;49.970;9.068;2023-07-29T00:43:41;17.70;99.90
4874;DHT22;2451;49.970;9.068;2023-07-29T00:46:07;17.70;99.90
4874;DHT22;2451;49.970;9.068;2023-07-29T00:48:33;17.80;99.90
4874;DHT22;2451;49.970;9.068;2023-07-29T00:50:59;17.80;99.90
4874;DHT22;2451;49.970;9.068;2023-07-29T00:53:24;17.80;99.90
4874;DHT22;2451;49.970;9.068;2023-07-29T00:55:50;17.80;99.90
4874;DHT22;2451;49.970;9.068;2023-07-29T00:58:16;17.80;99.90
4874;DHT22;2451;49.970;9.068;2023-07-29T01:00:41;17.90;99.90
4874;DHT22;2451;49.970;9.068;2023-07-29T01:03:07;17.90;99.90
4874;DHT22;2451;49.970;9.068;2023-07-29T01:05:49;17.90;99.90
4874;DHT22;2451;49.970;9.068;2023-07-29T01:08:31;17.90;99.90
4874;DHT22;2451;49.970;9.068;2023-07-29T01:11:08;17.90;99.90
4874;DHT22;2451;49.970;9.068;2023-07-29T01:14:05;17.90;99.90
4874;DHT22;2451;49.970;9.068;2023-07-29T01:16:42;17.90;99.90
4874;DHT22;2451;49.970;9.068;2023-07-29T01:19:26;17.90;99.90
4874;DHT22;2451;49.970;9.068;2023-07-29T01:21:58;17.90;99.90
4874;DHT22;2451;49.970;9.068;2023-07-29T01:24:24;17.90;99.90
4874;DHT22;2451;49.970;9.068;2023-07-29T01:26:50;17.90;99.90
4874;DHT22;2451;49.970;9.068;2023-07-29T01:29:16;17.90;99.90
4874;DHT22;2451;49.970;9.068;2023-07-29T01:31:46;17.90;99.90
4874;DHT22;2451;49.970;9.068;2023-07-29T01:34:37;18.00;99.90
4874;DHT22;2451;49.970;9.068;2023-07-29T01:37:04;18.00;99.90
4874;DHT22;2451;49.970;9.068;2023-07-29T01:39:32;18.00;99.90
4874;DHT22;2451;49.970;9.068;2023-07-29T01:42:00;18.00;99.90
4874;DHT22;2451;49.970;9.068;2023-07-29T01:44:26;18.00;99.90
4874;DHT22;2451;49.970;9.068;2023-07-29T01:46:52;18.00;99.90
4874;DHT22;2451;49.970;9.068;2023-07-29T01:49:17;18.00;99.90
4874;DHT22;2451;49.970;9.068;2023-07-29T01:51:43;18.00;99.90
4874;DHT22;2451;49.970;9.068;2023-07-29T01:54:09;18.00;99.90
4874;DHT22;2451;49.970;9.068;2023-07-29T01:56:34;18.00;99.90
4874;DHT22;2451;49.970;9.068;2023-07-29T01:59:00;18.00;99.90
4874;DHT22;2451;49.970;9.068;2023-07-29T02:01:25;18.00;99.90
4874;DHT22;2451;49.970;9.068;2023-07-29T02:03:51;18.00;99.90
4874;DHT22;2451;49.970;9.068;2023-07-29T02:06:21;18.00;99.90
4874;DHT22;2451;49.970;9.068;2023-07-29T02:08:46;18.00;99.90
4874;DHT22;2451;49.970;9.068;2023-07-29T02:11:12;18.00;99.90
4874;DHT22;2451;49.970;9.068;2023-07-29T02:13:37;18.00;99.90
4874;DHT22;2451;49.970;9.068;2023-07-29T02:16:03;18.10;99.90
4874;DHT22;2451;49.970;9.068;2023-07-29T02:18:29;18.10;99.90
4874;DHT22;2451;49.970;9.068;2023-07-29T02:20:54;18.00;99.90
4874;DHT22;2451;49.970;9.068;2023-07-29T02:23:20;18.10;99.90
4874;DHT22;2451;49.970;9.068;2023-07-29T02:25:45;18.10;99.90
4874;DHT22;2451;49.970;9.068;2023-07-29T02:28:11;18.10;99.90
4874;DHT22;2451;49.970;9.068;2023-07-29T02:30:37;18.10;99.90
4874;DHT22;2451;49.970;9.068;2023-07-29T02:33:02;18.10;99.90
4874;DHT22;2451;49.970;9.068;2023-07-29T02:35:28;18.10;99.90
4874;DHT22;2451;49.970;9.068;2023-07-29T02:37:53;18.10;99.90
4874;DHT22;2451;49.970;9.068;2023-07-29T02:40:19;18.10;99.90
4874;DHT22;2451;49.970;9.068;2023-07-29T02:42:46;18.20;99.90
4874;DHT22;2451;49.970;9.068;2023-07-29T02:45:11;18.20;99.90
4874;DHT22;2451;49.970;9.068;2023-07-29T02:47:37;18.20;99.90
4874;DHT22;2451;49.970;9.068;2023-07-29T02:50:03;18.20;99.90
4874;DHT22;2451;49.970;9.068;2023-07-29T02:52:30;18.20;99.90
4874;DHT22;2451;49.970;9.068;2023-07-29T02:54:55;18.20;99.90
4874;DHT22;2451;49.970;9.068;2023-07-29T02:57:21;18.20;99.90
4874;DHT22;2451;49.970;9.068;2023-07-29T02:59:46;18.20;99.90
4874;DHT22;2451;49.970;9.068;2023-07-29T03:02:12;18.20;99.90
4874;DHT22;2451;49.970;9.068;2023-07-29T03:04:37;18.20;99.90
4874;DHT22;2451;49.970;9.068;2023-07-29T03:07:03;18.20;99.90
4874;DHT22;2451;49.970;9.068;2023-07-29T03:09:29;18.20;99.90
4874;DHT22;2451;49.970;9.068;2023-07-29T03:11:54;18.20;99.90
4874;DHT22;2451;49.970;9.068;2023-07-29T03:14:20;18.20;99.90
4874;DHT22;2451;49.970;9.068;2023-07-29T03:16:46;18.30;99.90
4874;DHT22;2451;49.970;9.068;2023-07-29T03:19:12;18.30;99.90
4874;DHT22;2451;49.970;9.068;2023-07-29T03:21:37;18.30;99.90
4874;DHT22;2451;49.970;9.068;2023-07-29T03:24:03;18.30;99.90
4874;DHT22;2451;49.970;9.068;2023-07-29T03:26:29;18.30;99.90
4874;DHT22;2451;49.970;9.068;2023-07-29T03:28:54;18.40;99.90
4874;DHT22;2451;49.970;9.068;2023-07-29T03:31:20;18.40;99.90
4874;DHT22;2451;49.970;9.068;2023-07-29T03:33:45;18.40;99.90
4874;DHT22;2451;49.970;9.068;2023-07-29T03:36:11;18.40;99.90
4874;DHT22;2451;49.970;9.068;2023-07-29T03:38:36;18.40;99.90
4874;DHT22;2451;49.970;9.068;2023-07-29T03:41:06;18.40;99.90
4874;DHT22;2451;49.970;9.068;2023-07-29T03:43:32;18.40;99.90
4874;DHT22;2451;49.970;9.068;2023-07-29T03:45:57;18.30;99.90
4874;DHT22;2451;49.970;9.068;2023-07-29T03:48:23;18.30;99.90
4874;DHT22;2451;49.970;9.068;2023-07-29T03:50:48;18.30;99.90
4874;DHT22;2451;49.970;9.068;2023-07-29T03:53:14;18.20;99.90
4874;DHT22;2451;49.970;9.068;2023-07-29T03:55:40;18.20;99.90
4874;DHT22;2451;49.970;9.068;2023-07-29T03:58:06;18.20;99.90
4874;DHT22;2451;49.970;9.068;2023-07-29T04:00:31;18.20;99.90
4874;DHT22;2451;49.970;9.068;2023-07-29T04:02:57;18.20;99.90
4874;DHT22;2451;49.970;9.068;2023-07-29T04:05:22;18.20;99.90
4874;DHT22;2451;49.970;9.068;2023-07-29T04:07:48;18.20;99.90
4874;DHT22;2451;49.970;9.068;2023-07-29T04:10:14;18.10;99.90
4874;DHT22;2451;49.970;9.068;2023-07-29T04:12:39;18.10;99.90
4874;DHT22;2451;49.970;9.068;2023-07-29T04:15:05;18.10;99.90
4874;DHT22;2451;49.970;9.068;2023-07-29T04:17:31;18.10;99.90
4874;DHT22;2451;49.970;9.068;2023-07-29T04:19:56;18.10;99.90
4874;DHT22;2451;49.970;9.068;2023-07-29T04:22:22;18.10;99.90
4874;DHT22;2451;49.970;9.068;2023-07-29T04:24:47;18.10;99.90
4874;DHT22;2451;49.970;9.068;2023-07-29T04:27:13;18.10;99.90
4874;DHT22;2451;49.970;9.068;2023-07-29T04:29:38;18.10;99.90
4874;DHT22;2451;49.970;9.068;2023-07-29T04:32:04;18.10;99.90
4874;DHT22;2451;49.970;9.068;2023-07-29T04:34:30;18.10;99.90
4874;DHT22;2451;49.970;9.068;2023-07-29T04:36:56;18.10;99.90
4874;DHT22;2451;49.970;9.068;2023-07-29T04:39:22;18.20;99.90
4874;DHT22;2451;49.970;9.068;2023-07-29T04:41:47;18.20;99.90
4874;DHT22;2451;49.970;9.068;2023-07-29T04:44:13;18.20;99.90
4874;DHT22;2451;49.970;9.068;2023-07-29T04:46:38;18.20;99.90
4874;DHT22;2451;49.970;9.068;2023-07-29T04:49:04;18.30;99.90
4874;DHT22;2451;49.970;9.068;2023-07-29T04:51:30;18.30;99.90
4874;DHT22;2451;49.970;9.068;2023-07-29T04:53:57;18.30;99.90
4874;DHT22;2451;49.970;9.068;2023-07-29T04:56:22;18.30;99.90
4874;DHT22;2451;49.970;9.068;2023-07-29T04:58:48;18.30;99.90
4874;DHT22;2451;49.970;9.068;2023-07-29T05:01:13;18.40;99.90
4874;DHT22;2451;49.970;9.068;2023-07-29T05:03:39;18.30;99.90
4874;DHT22;2451;49.970;9.068;2023-07-29T05:06:05;18.40;99.90
4874;DHT22;2451;49.970;9.068;2023-07-29T05:08:30;18.40;99.90
4874;DHT22;2451;49.970;9.068;2023-07-29T05:10:56;18.50;99.90
4874;DHT22;2451;49.970;9.068;2023-07-29T05:13:22;18.50;99.90
4874;DHT22;2451;49.970;9.068;2023-07-29T05:15:48;18.60;99.90
4874;DHT22;2451;49.970;9.068;2023-07-29T05:18:15;18.60;99.90
4874;DHT22;2451;49.970;9.068;2023-07-29T05:20:41;18.60;99.90
4874;DHT22;2451;49.970;9.068;2023-07-29T05:23:06;18.70;99.90
4874;DHT22;2451;49.970;9.068;2023-07-29T05:25:32;18.70;99.90
4874;DHT22;2451;49.970;9.068;2023-07-29T05:28:00;18.70;99.90
4874;DHT22;2451;49.970;9.068;2023-07-29T05:30:25;18.80;99.90
4874;DHT22;2451;49.970;9.068;2023-07-29T05:32:52;18.80;99.90
4874;DHT22;2451;49.970;9.068;2023-07-29T05:35:17;18.80;99.90
4874;DHT22;2451;49.970;9.068;2023-07-29T05:37:43;18.90;99.90
4874;DHT22;2451;49.970;9.068;2023-07-29T05:40:09;19.00;99.90
4874;DHT22;2451;49.970;9.068;2023-07-29T05:42:34;19.00;99.90
4874;DHT22;2451;49.970;9.068;2023-07-29T05:45:00;19.00;99.90
4874;DHT22;2451;49.970;9.068;2023-07-29T05:47:26;19.10;99.90
4874;DHT22;2451;49.970;9.068;2023-07-29T05:49:52;19.10;99.90
4874;DHT22;2451;49.970;9.068;2023-07-29T05:52:17;19.20;99.90
4874;DHT22;2451;49.970;9.068;2023-07-29T05:54:43;19.20;99.90
4874;DHT22;2451;49.970;9.068;2023-07-29T05:57:09;19.30;99.90
4874;DHT22;2451;49.970;9.068;2023-07-29T05:59:35;19.30;99.90
4874;DHT22;2451;49.970;9.068;2023-07-29T06:02:01;19.30;99.90
4874;DHT22;2451;49.970;9.068;2023-07-29T06:04:26;19.30;99.90
4874;DHT22;2451;49.970;9.068;2023-07-29T06:06:52;19.30;99.90
4874;DHT22;2451;49.970;9.068;2023-07-29T06:09:17;19.30;99.90
4874;DHT22;2451;49.970;9.068;2023-07-29T06:11:43;19.40;99.90
4874;DHT22;2451;49.970;9.068;2023-07-29T06:14:09;19.40;99.90
4874;DHT22;2451;49.970;9.068;2023-07-29T06:16:34;19.40;99.90
4874;DHT22;2451;49.970;9.068;2023-07-29T06:19:00;19.40;99.90
4874;DHT22;2451;49.970;9.068;2023-07-29T06:21:25;19.40;99.90
4874;DHT22;2451;49.970;9.068;2023-07-29T06:23:51;19.50;99.90
4874;DHT22;2451;49.970;9.068;2023-07-29T06:26:16;19.50;99.90
4874;DHT22;2451;49.970;9.068;2023-07-29T06:28:42;19.50;99.90
4874;DHT22;2451;49.970;9.068;2023-07-29T06:31:07;19.50;99.90
4874;DHT22;2451;49.970;9.068;2023-07-29T06:33:33;19.50;99.90
4874;DHT22;2451;49.970;9.068;2023-07-29T06:35:58;19.50;99.90
4874;DHT22;2451;49.970;9.068;2023-07-29T06:38:24;19.50;99.90
4874;DHT22;2451;49.970;9.068;2023-07-29T06:40:49;19.50;99.90
4874;DHT22;2451;49.970;9.068;2023-07-29T06:43:15;19.50;99.90
4874;DHT22;2451;49.970;9.068;2023-07-29T06:45:40;19.40;99.90
4874;DHT22;2451;49.970;9.068;2023-07-29T06:48:06;19.40;99.90
4874;DHT22;2451;49.970;9.068;2023-07-29T06:50:31;19.40;99.90
4874;DHT22;2451;49.970;9.068;2023-07-29T06:52:57;19.40;99.90
4874;DHT22;2451;49.970;9.068;2023-07-29T06:55:22;19.50;99.90
4874;DHT22;2451;49.970;9.068;2023-07-29T06:57:48;19.50;99.90
4874;DHT22;2451;49.970;9.068;2023-07-29T07:00:13;19.50;99.90
4874;DHT22;2451;49.970;9.068;2023-07-29T07:02:39;19.50;99.90
4874;DHT22;2451;49.970;9.068;2023-07-29T07:05:05;19.50;99.90
4874;DHT22;2451;49.970;9.068;2023-07-29T07:07:30;19.60;99.90
4874;DHT22;2451;49.970;9.068;2023-07-29T07:09:56;19.60;99.90
4874;DHT22;2451;49.970;9.068;2023-07-29T07:12:22;19.70;99.90
4874;DHT22;2451;49.970;9.068;2023-07-29T07:14:47;19.70;99.90
4874;DHT22;2451;49.970;9.068;2023-07-29T07:17:13;19.80;99.90
4874;DHT22;2451;49.970;9.068;2023-07-29T07:19:39;19.80;99.90
4874;DHT22;2451;49.970;9.068;2023-07-29T07:22:04;19.80;99.90
4874;DHT22;2451;49.970;9.068;2023-07-29T07:24:30;19.80;99.90
4874;DHT22;2451;49.970;9.068;2023-07-29T07:26:55;19.80;99.90
4874;DHT22;2451;49.970;9.068;2023-07-29T07:29:21;19.90;99.90
4874;DHT22;2451;49.970;9.068;2023-07-29T07:31:54;19.80;99.90
4874;DHT22;2451;49.970;9.068;2023-07-29T07:34:23;19.80;99.90
4874;DHT22;2451;49.970;9.068;2023-07-29T07:36:49;19.80;99.90
4874;DHT22;2451;49.970;9.068;2023-07-29T07:39:14;19.80;99.90
4874;DHT22;2451;49.970;9.068;2023-07-29T07:41:41;19.70;99.90
4874;DHT22;2451;49.970;9.068;2023-07-29T07:44:07;19.60;99.90
4874;DHT22;2451;49.970;9.068;2023-07-29T07:46:32;19.60;99.90
4874;DHT22;2451;49.970;9.068;2023-07-29T07:48:58;19.50;99.90
4874;DHT22;2451;49.970;9.068;2023-07-29T07:51:24;19.40;99.90
4874;DHT22;2451;49.970;9.068;2023-07-29T07:53:49;19.40;99.90
4874;DHT22;2451;49.970;9.068;2023-07-29T07:56:15;19.40;99.90
4874;DHT22;2451;49.970;9.068;2023-07-29T07:58:40;19.40;99.90
4874;DHT22;2451;49.970;9.068;2023-07-29T08:01:08;19.30;99.90
4874;DHT22;2451;49.970;9.068;2023-07-29T08:03:34;19.30;99.90
4874;DHT22;2451;49.970;9.068;2023-07-29T08:06:00;19.30;99.90
4874;DHT22;2451;49.970;9.068;2023-07-29T08:08:26;19.30;99.90
4874;DHT22;2451;49.970;9.068;2023-07-29T08:10:53;19.30;99.90
4874;DHT22;2451;49.970;9.068;2023-07-29T08:13:23;19.30;99.90
4874;DHT22;2451;49.970;9.068;2023-07-29T08:15:49;19.30;99.90
4874;DHT22;2451;49.970;9.068;2023-07-29T08:18:16;19.30;99.90
4874;DHT22;2451;49.970;9.068;2023-07-29T08:20:51;19.40;99.90
4874;DHT22;2451;49.970;9.068;2023-07-29T08:23:16;19.30;99.90
4874;DHT22;2451;49.970;9.068;2023-07-29T08:25:42;19.30;99.90
4874;DHT22;2451;49.970;9.068;2023-07-29T08:28:07;19.40;99.90
4874;DHT22;2451;49.970;9.068;2023-07-29T08:30:33;19.40;99.90
4874;DHT22;2451;49.970;9.068;2023-07-29T08:32:58;19.30;99.90
4874;DHT22;2451;49.970;9.068;2023-07-29T08:35:24;19.40;99.90
4874;DHT22;2451;49.970;9.068;2023-07-29T08:37:49;19.40;99.90
4874;DHT22;2451;49.970;9.068;2023-07-29T08:40:15;19.40;99.90
4874;DHT22;2451;49.970;9.068;2023-07-29T08:42:41;19.50;99.90
4874;DHT22;2451;49.970;9.068;2023-07-29T08:45:09;19.50;99.90
4874;DHT22;2451;49.970;9.068;2023-07-29T08:47:36;19.60;99.90
4874;DHT22;2451;49.970;9.068;2023-07-29T08:50:03;19.70;99.90
4874;DHT22;2451;49.970;9.068;2023-07-29T08:52:29;19.80;99.90
4874;DHT22;2451;49.970;9.068;2023-07-29T08:54:57;19.90;99.90
4874;DHT22;2451;49.970;9.068;2023-07-29T08:57:23;20.10;99.90
4874;DHT22;2451;49.970;9.068;2023-07-29T08:59:49;20.20;99.90
4874;DHT22;2451;49.970;9.068;2023-07-29T09:02:15;20.50;99.90
4874;DHT22;2451;49.970;9.068;2023-07-29T09:04:40;20.70;99.90
4874;DHT22;2451;49.970;9.068;2023-07-29T09:07:07;21.00;99.90
4874;DHT22;2451;49.970;9.068;2023-07-29T09:09:33;21.40;99.90
4874;DHT22;2451;49.970;9.068;2023-07-29T09:11:58;21.90;99.90
4874;DHT22;2451;49.970;9.068;2023-07-29T09:14:24;22.20;99.90
4874;DHT22;2451;49.970;9.068;2023-07-29T09:16:50;22.40;99.90
4874;DHT22;2451;49.970;9.068;2023-07-29T09:19:16;22.50;99.90
4874;DHT22;2451;49.970;9.068;2023-07-29T09:21:42;22.90;99.90
4874;DHT22;2451;49.970;9.068;2023-07-29T09:24:08;23.10;99.90
4874;DHT22;2451;49.970;9.068;2023-07-29T09:26:34;23.40;99.90
4874;DHT22;2451;49.970;9.068;2023-07-29T09:29:00;23.50;99.90
4874;DHT22;2451;49.970;9.068;2023-07-29T09:31:28;23.50;99.90
4874;DHT22;2451;49.970;9.068;2023-07-29T09:33:58;23.40;99.90
4874;DHT22;2451;49.970;9.068;2023-07-29T09:36:24;23.40;99.90
4874;DHT22;2451;49.970;9.068;2023-07-29T09:38:54;23.30;99.90
4874;DHT22;2451;49.970;9.068;2023-07-29T09:41:28;23.30;99.90
4874;DHT22;2451;49.970;9.068;2023-07-29T09:43:57;23.20;99.90
4874;DHT22;2451;49.970;9.068;2023-07-29T09:46:24;23.30;99.90
4874;DHT22;2451;49.970;9.068;2023-07-29T09:48:55;23.40;99.90
4874;DHT22;2451;49.970;9.068;2023-07-29T09:51:22;23.40;99.90
4874;DHT22;2451;49.970;9.068;2023-07-29T09:53:49;23.30;99.90
4874;DHT22;2451;49.970;9.068;2023-07-29T09:56:15;23.30;99.90
4874;DHT22;2451;49.970;9.068;2023-07-29T09:58:43;23.50;99.90
4874;DHT22;2451;49.970;9.068;2023-07-29T10:01:11;23.50;99.90
4874;DHT22;2451;49.970;9.068;2023-07-29T10:03:37;23.60;99.90
4874;DHT22;2451;49.970;9.068;2023-07-29T10:06:04;23.90;99.90
4874;DHT22;2451;49.970;9.068;2023-07-29T10:08:30;24.10;99.90
4874;DHT22;2451;49.970;9.068;2023-07-29T10:11:05;24.10;99.90
4874;DHT22;2451;49.970;9.068;2023-07-29T10:13:32;24.20;99.90
4874;DHT22;2451;49.970;9.068;2023-07-29T10:15:58;24.30;99.90
4874;DHT22;2451;49.970;9.068;2023-07-29T10:18:24;24.70;99.90
4874;DHT22;2451;49.970;9.068;2023-07-29T10:20:51;24.90;99.90
4874;DHT22;2451;49.970;9.068;2023-07-29T10:23:18;25.20;99.90
4874;DHT22;2451;49.970;9.068;2023-07-29T10:25:59;25.50;99.90
4874;DHT22;2451;49.970;9.068;2023-07-29T10:28:29;25.70;99.90
4874;DHT22;2451;49.970;9.068;2023-07-29T10:30:56;25.70;99.90
4874;DHT22;2451;49.970;9.068;2023-07-29T10:33:22;25.80;99.90
4874;DHT22;2451;49.970;9.068;2023-07-29T10:35:47;26.00;99.90
4874;DHT22;2451;49.970;9.068;2023-07-29T10:38:13;26.10;99.90
4874;DHT22;2451;49.970;9.068;2023-07-29T10:40:54;26.20;99.90
4874;DHT22;2451;49.970;9.068;2023-07-29T10:45:56;26.50;99.90
4874;DHT22;2451;49.970;9.068;2023-07-29T10:51:28;26.80;99.90
4874;DHT22;2451;49.970;9.068;2023-07-29T10:54:02;26.90;99.90
4874;DHT22;2451;49.970;9.068;2023-07-29T10:56:33;27.10;99.90
4874;DHT22;2451;49.970;9.068;2023-07-29T10:59:48;27.30;99.90
4874;DHT22;2451;49.970;9.068;2023-07-29T11:01:54;27.50;99.90
4874;DHT22;2451;49.970;9.068;2023-07-29T11:09:50;27.70;99.90
4874;DHT22;2451;49.970;9.068;2023-07-29T11:15:04;27.80;99.90
4874;DHT22;2451;49.970;9.068;2023-07-29T11:17:33;27.40;99.90
4874;DHT22;2451;49.970;9.068;2023-07-29T11:20:02;26.80;99.90
4874;DHT22;2451;49.970;9.068;2023-07-29T11:22:29;26.50;99.90
4874;DHT22;2451;49.970;9.068;2023-07-29T11:24:54;26.40;99.90
4874;DHT22;2451;49.970;9.068;2023-07-29T11:27:20;26.30;99.90
4874;DHT22;2451;49.970;9.068;2023-07-29T11:29:46;26.30;99.90
4874;DHT22;2451;49.970;9.068;2023-07-29T11:32:12;26.80;99.90
4874;DHT22;2451;49.970;9.068;2023-07-29T11:34:38;27.10;99.90
4874;DHT22;2451;49.970;9.068;2023-07-29T11:37:06;27.50;99.90
4874;DHT22;2451;49.970;9.068;2023-07-29T11:39:42;27.70;99.90
4874;DHT22;2451;49.970;9.068;2023-07-29T11:42:14;27.50;99.90
4874;DHT22;2451;49.970;9.068;2023-07-29T11:44:40;27.30;99.90
4874;DHT22;2451;49.970;9.068;2023-07-29T11:47:10;27.30;99.90
4874;DHT22;2451;49.970;9.068;2023-07-29T11:49:37;27.40;99.90
4874;DHT22;2451;49.970;9.068;2023-07-29T11:52:04;27.30;99.90
4874;DHT22;2451;49.970;9.068;2023-07-29T11:54:31;27.40;99.90
4874;DHT22;2451;49.970;9.068;2023-07-29T11:56:56;27.80;99.90
4874;DHT22;2451;49.970;9.068;2023-07-29T11:59:23;28.20;99.90
4874;DHT22;2451;49.970;9.068;2023-07-29T12:01:48;28.00;99.90
4874;DHT22;2451;49.970;9.068;2023-07-29T12:04:14;27.70;99.90
4874;DHT22;2451;49.970;9.068;2023-07-29T12:06:40;27.70;99.90
4874;DHT22;2451;49.970;9.068;2023-07-29T12:09:06;28.10;99.90
4874;DHT22;2451;49.970;9.068;2023-07-29T12:11:33;28.50;99.90
4874;DHT22;2451;49.970;9.068;2023-07-29T12:14:02;28.50;99.90
4874;DHT22;2451;49.970;9.068;2023-07-29T12:16:29;28.50;99.90
4874;DHT22;2451;49.970;9.068;2023-07-29T12:19:00;28.70;99.90
4874;DHT22;2451;49.970;9.068;2023-07-29T12:21:26;28.60;99.90
4874;DHT22;2451;49.970;9.068;2023-07-29T12:23:51;28.80;99.90
4874;DHT22;2451;49.970;9.068;2023-07-29T12:26:17;28.80;99.90
4874;DHT22;2451;49.970;9.068;2023-07-29T12:28:46;28.90;99.90
4874;DHT22;2451;49.970;9.068;2023-07-29T12:31:12;29.10;99.90
4874;DHT22;2451;49.970;9.068;2023-07-29T12:33:37;28.80;99.90
4874;DHT22;2451;49.970;9.068;2023-07-29T12:36:04;28.70;99.90
4874;DHT22;2451;49.970;9.068;2023-07-29T12:38:30;28.90;99.90
4874;DHT22;2451;49.970;9.068;2023-07-29T12:40:56;29.30;99.90
4874;DHT22;2451;49.970;9.068;2023-07-29T12:43:21;29.60;99.90
4874;DHT22;2451;49.970;9.068;2023-07-29T12:45:49;29.70;99.90
4874;DHT22;2451;49.970;9.068;2023-07-29T12:48:14;29.60;99.90
4874;DHT22;2451;49.970;9.068;2023-07-29T12:50:40;28.90;99.90
4874;DHT22;2451;49.970;9.068;2023-07-29T12:53:07;28.20;99.90
4874;DHT22;2451;49.970;9.068;2023-07-29T12:55:33;27.70;99.90
4874;DHT22;2451;49.970;9.068;2023-07-29T12:57:58;27.70;99.90
4874;DHT22;2451;49.970;9.068;2023-07-29T13:00:24;27.90;99.90
4874;DHT22;2451;49.970;9.068;2023-07-29T13:02:50;27.70;99.90
4874;DHT22;2451;49.970;9.068;2023-07-29T13:05:16;27.40;99.90
4874;DHT22;2451;49.970;9.068;2023-07-29T13:07:43;27.10;99.90
4874;DHT22;2451;49.970;9.068;2023-07-29T13:10:09;27.00;99.90
4874;DHT22;2451;49.970;9.068;2023-07-29T13:12:35;27.00;99.90
4874;DHT22;2451;49.970;9.068;2023-07-29T13:15:01;27.00;99.90
4874;DHT22;2451;49.970;9.068;2023-07-29T13:17:26;27.10;99.90
4874;DHT22;2451;49.970;9.068;2023-07-29T13:19:52;27.10;99.90
4874;DHT22;2451;49.970;9.068;2023-07-29T13:22:19;27.10;99.90
4874;DHT22;2451;49.970;9.068;2023-07-29T13:24:44;27.00;99.90
4874;DHT22;2451;49.970;9.068;2023-07-29T13:27:10;27.10;99.90
4874;DHT22;2451;49.970;9.068;2023-07-29T13:29:35;27.40;99.90
4874;DHT22;2451;49.970;9.068;2023-07-29T13:32:01;27.30;99.90
4874;DHT22;2451;49.970;9.068;2023-07-29T13:34:26;27.60;99.90
4874;DHT22;2451;49.970;9.068;2023-07-29T13:36:52;28.00;99.90
4874;DHT22;2451;49.970;9.068;2023-07-29T13:39:18;28.50;98.30
4874;DHT22;2451;49.970;9.068;2023-07-29T13:41:43;28.60;97.00
4874;DHT22;2451;49.970;9.068;2023-07-29T13:44:09;28.90;97.20
4874;DHT22;2451;49.970;9.068;2023-07-29T13:46:35;29.00;95.10
4874;DHT22;2451;49.970;9.068;2023-07-29T13:49:00;29.10;95.20
4874;DHT22;2451;49.970;9.068;2023-07-29T13:51:26;28.70;94.70
4874;DHT22;2451;49.970;9.068;2023-07-29T13:53:52;28.70;94.10
4874;DHT22;2451;49.970;9.068;2023-07-29T13:56:17;28.70;94.20
4874;DHT22;2451;49.970;9.068;2023-07-29T13:58:43;28.80;94.10
4874;DHT22;2451;49.970;9.068;2023-07-29T14:01:08;28.90;93.70
4874;DHT22;2451;49.970;9.068;2023-07-29T14:03:34;28.60;93.30
4874;DHT22;2451;49.970;9.068;2023-07-29T14:05:59;28.40;94.20
4874;DHT22;2451;49.970;9.068;2023-07-29T14:08:25;28.00;94.00
4874;DHT22;2451;49.970;9.068;2023-07-29T14:10:50;27.80;94.40
4874;DHT22;2451;49.970;9.068;2023-07-29T14:13:16;28.10;95.80
4874;DHT22;2451;49.970;9.068;2023-07-29T14:15:41;28.50;94.60
4874;DHT22;2451;49.970;9.068;2023-07-29T14:18:07;28.50;92.10
4874;DHT22;2451;49.970;9.068;2023-07-29T14:20:33;28.50;91.10
4874;DHT22;2451;49.970;9.068;2023-07-29T14:22:59;28.30;91.50
4874;DHT22;2451;49.970;9.068;2023-07-29T14:25:24;28.30;90.30
4874;DHT22;2451;49.970;9.068;2023-07-29T14:27:50;28.40;90.00
4874;DHT22;2451;49.970;9.068;2023-07-29T14:30:16;28.40;90.30
4874;DHT22;2451;49.970;9.068;2023-07-29T14:32:41;28.60;89.10
4874;DHT22;2451;49.970;9.068;2023-07-29T14:35:07;28.80;90.20
4874;DHT22;2451;49.970;9.068;2023-07-29T14:37:34;29.00;90.10
4874;DHT22;2451;49.970;9.068;2023-07-29T14:40:00;29.10;86.50
4874;DHT22;2451;49.970;9.068;2023-07-29T14:42:26;29.00;84.40
4874;DHT22;2451;49.970;9.068;2023-07-29T14:44:52;29.00;87.00
4874;DHT22;2451;49.970;9.068;2023-07-29T14:47:18;29.10;85.90
4874;DHT22;2451;49.970;9.068;2023-07-29T14:49:44;29.10;85.00
4874;DHT22;2451;49.970;9.068;2023-07-29T14:52:10;29.10;85.70
4874;DHT22;2451;49.970;9.068;2023-07-29T14:54:35;29.00;83.90
4874;DHT22;2451;49.970;9.068;2023-07-29T14:57:01;28.90;84.00
4874;DHT22;2451;49.970;9.068;2023-07-29T14:59:26;28.80;82.60
4874;DHT22;2451;49.970;9.068;2023-07-29T15:01:52;28.80;82.20
4874;DHT22;2451;49.970;9.068;2023-07-29T15:04:18;28.60;82.40
4874;DHT22;2451;49.970;9.068;2023-07-29T15:06:44;28.70;83.30
4874;DHT22;2451;49.970;9.068;2023-07-29T15:09:09;28.70;84.80
4874;DHT22;2451;49.970;9.068;2023-07-29T15:11:35;28.40;83.30
4874;DHT22;2451;49.970;9.068;2023-07-29T15:14:02;28.30;85.00
4874;DHT22;2451;49.970;9.068;2023-07-29T15:16:29;28.30;85.60
4874;DHT22;2451;49.970;9.068;2023-07-29T15:18:54;28.50;88.40
4874;DHT22;2451;49.970;9.068;2023-07-29T15:21:20;28.40;85.80
4874;DHT22;2451;49.970;9.068;2023-07-29T15:23:45;28.40;90.70
4874;DHT22;2451;49.970;9.068;2023-07-29T15:26:12;28.50;89.20
4874;DHT22;2451;49.970;9.068;2023-07-29T15:28:37;28.20;89.50
4874;DHT22;2451;49.970;9.068;2023-07-29T15:31:03;28.00;90.30
4874;DHT22;2451;49.970;9.068;2023-07-29T15:33:28;28.00;90.10
4874;DHT22;2451;49.970;9.068;2023-07-29T15:35:54;28.10;91.70
4874;DHT22;2451;49.970;9.068;2023-07-29T15:38:20;27.90;90.20
4874;DHT22;2451;49.970;9.068;2023-07-29T15:40:45;27.90;90.50
4874;DHT22;2451;49.970;9.068;2023-07-29T15:43:11;27.80;91.20
4874;DHT22;2451;49.970;9.068;2023-07-29T15:45:36;27.50;91.30
4874;DHT22;2451;49.970;9.068;2023-07-29T15:48:02;27.10;93.10
4874;DHT22;2451;49.970;9.068;2023-07-29T15:50:28;26.90;93.20
4874;DHT22;2451;49.970;9.068;2023-07-29T15:52:54;26.90;94.40
4874;DHT22;2451;49.970;9.068;2023-07-29T15:55:20;27.00;94.30
4874;DHT22;2451;49.970;9.068;2023-07-29T15:57:46;27.20;94.10
4874;DHT22;2451;49.970;9.068;2023-07-29T16:00:12;27.30;94.50
4874;DHT22;2451;49.970;9.068;2023-07-29T16:02:38;27.40;94.70
4874;DHT22;2451;49.970;9.068;2023-07-29T16:05:05;27.40;92.80
4874;DHT22;2451;49.970;9.068;2023-07-29T16:07:31;27.30;93.30
4874;DHT22;2451;49.970;9.068;2023-07-29T16:09:56;27.30;93.30
4874;DHT22;2451;49.970;9.068;2023-07-29T16:12:22;27.20;93.30